createdAt,value
2024-03-10T00:00:55.155Z,397.00
2024-03-10T00:01:55.426Z,398.00
2024-03-10T00:02:56.033Z,398.00
2024-03-10T00:03:55.438Z,399.00
2024-03-10T00:04:55.565Z,399.00
2024-03-10T00:05:55.608Z,399.00
2024-03-10T00:06:55.707Z,399.00
2024-03-10T00:07:55.816Z,397.00
2024-03-10T00:08:55.915Z,397.00
2024-03-10T00:09:55.982Z,397.00
2024-03-10T00:10:56.154Z,396.00
2024-03-10T00:11:56.319Z,395.00
2024-03-10T00:12:56.297Z,394.00
2024-03-10T00:13:56.537Z,393.00
2024-03-10T00:14:56.470Z,393.00
2024-03-10T00:15:56.546Z,395.00
2024-03-10T00:16:56.845Z,396.00
2024-03-10T00:17:56.803Z,396.00
2024-03-10T00:18:56.856Z,397.00
2024-03-10T00:19:56.923Z,399.00
2024-03-10T00:20:57.023Z,398.00
2024-03-10T00:21:57.118Z,397.00
2024-03-10T00:22:57.226Z,395.00
2024-03-10T00:23:57.323Z,396.00
2024-03-10T00:24:57.374Z,395.00
2024-03-10T00:25:57.561Z,394.00
2024-03-10T00:26:57.597Z,394.00
2024-03-10T00:27:57.692Z,396.00
2024-03-10T00:28:57.788Z,395.00
2024-03-10T00:29:57.900Z,396.00
2024-03-10T00:30:57.957Z,396.00
2024-03-10T00:31:58.107Z,395.00
2024-03-10T00:32:58.225Z,394.00
2024-03-10T00:33:58.268Z,393.00
2024-03-10T00:34:58.359Z,396.00
2024-03-10T00:35:58.444Z,397.00
2024-03-10T00:36:58.533Z,398.00
2024-03-10T00:37:58.673Z,395.00
2024-03-10T00:38:58.699Z,394.00
2024-03-10T00:39:59.668Z,394.00
2024-03-10T00:40:58.916Z,393.00
2024-03-10T00:41:58.996Z,393.00
2024-03-10T00:42:59.114Z,394.00
2024-03-10T00:43:59.255Z,393.00
2024-03-10T00:44:59.294Z,396.00
2024-03-10T00:45:59.401Z,393.00
2024-03-10T00:46:59.549Z,390.00
2024-03-10T00:47:59.666Z,389.00
2024-03-10T00:48:59.665Z,390.00
2024-03-10T00:49:59.796Z,391.00
2024-03-10T00:50:59.902Z,390.00
2024-03-10T00:51:59.996Z,390.00
2024-03-10T00:53:00.141Z,391.00
2024-03-10T00:54:00.172Z,392.00
2024-03-10T00:55:00.362Z,394.00
2024-03-10T00:56:00.447Z,392.00
2024-03-10T00:57:00.449Z,394.00
2024-03-10T00:58:00.555Z,394.00
2024-03-10T00:59:00.729Z,394.00
2024-03-10T01:00:00.753Z,395.00
2024-03-10T01:01:00.866Z,397.00
2024-03-10T01:02:00.976Z,395.00
2024-03-10T01:03:01.016Z,395.00
2024-03-10T01:04:01.290Z,396.00
2024-03-10T01:05:01.271Z,394.00
2024-03-10T01:06:01.301Z,395.00
2024-03-10T01:07:01.804Z,393.00
2024-03-10T01:08:01.497Z,392.00
2024-03-10T01:09:01.498Z,392.00
2024-03-10T01:10:01.587Z,392.00
2024-03-10T01:11:01.652Z,393.00
2024-03-10T01:12:01.670Z,394.00
2024-03-10T01:13:01.615Z,395.00
2024-03-10T01:14:01.793Z,397.00
2024-03-10T01:15:01.835Z,397.00
2024-03-10T01:16:01.989Z,398.00
2024-03-10T01:17:02.095Z,399.00
2024-03-10T01:18:02.200Z,398.00
2024-03-10T01:19:02.258Z,397.00
2024-03-10T01:20:02.514Z,396.00
2024-03-10T01:21:02.458Z,397.00
2024-03-10T01:22:02.543Z,395.00
2024-03-10T01:23:02.721Z,396.00
2024-03-10T01:24:05.828Z,397.00
2024-03-10T01:25:02.750Z,397.00
2024-03-10T01:26:02.757Z,395.00
2024-03-10T01:27:02.759Z,396.00
2024-03-10T01:28:02.768Z,397.00
2024-03-10T01:29:03.002Z,397.00
2024-03-10T01:30:02.723Z,398.00
2024-03-10T01:31:02.730Z,401.00
2024-03-10T01:32:02.764Z,400.00
2024-03-10T01:33:02.786Z,398.00
2024-03-10T01:34:02.729Z,396.00
2024-03-10T01:35:02.858Z,396.00
2024-03-10T01:36:02.741Z,396.00
2024-03-10T01:37:02.760Z,395.00
2024-03-10T01:38:02.743Z,396.00
2024-03-10T01:39:02.765Z,396.00
2024-03-10T01:40:02.756Z,395.00
2024-03-10T01:41:02.767Z,395.00
2024-03-10T01:42:02.752Z,397.00
2024-03-10T01:43:02.800Z,399.00
2024-03-10T01:44:02.850Z,399.00
2024-03-10T01:45:02.866Z,399.00
2024-03-10T01:46:02.931Z,397.00
2024-03-10T01:47:03.007Z,395.00
2024-03-10T01:48:03.093Z,396.00
2024-03-10T01:49:03.159Z,396.00
2024-03-10T01:50:03.285Z,396.00
2024-03-10T01:51:03.360Z,398.00
2024-03-10T01:52:03.448Z,398.00
2024-03-10T01:53:03.529Z,398.00
2024-03-10T01:54:03.626Z,396.00
2024-03-10T01:55:03.777Z,397.00
2024-03-10T01:56:03.883Z,398.00
2024-03-10T01:57:03.957Z,399.00
2024-03-10T01:58:04.058Z,400.00
2024-03-10T01:59:04.187Z,395.00
2024-03-10T02:00:04.254Z,396.00
2024-03-10T02:01:04.518Z,396.00
2024-03-10T02:02:04.552Z,397.00
2024-03-10T02:03:04.580Z,397.00
2024-03-10T02:04:04.711Z,399.00
2024-03-10T02:05:04.803Z,398.00
2024-03-10T02:06:04.904Z,396.00
2024-03-10T02:07:05.045Z,395.00
2024-03-10T02:08:05.097Z,396.00
2024-03-10T02:09:05.213Z,396.00
2024-03-10T02:10:05.285Z,396.00
2024-03-10T02:11:05.508Z,396.00
2024-03-10T02:12:05.564Z,396.00
2024-03-10T02:13:05.648Z,398.00
2024-03-10T02:14:05.756Z,398.00
2024-03-10T02:15:05.811Z,397.00
2024-03-10T02:16:05.947Z,395.00
2024-03-10T02:17:06.051Z,394.00
2024-03-10T02:18:06.196Z,393.00
2024-03-10T02:19:06.310Z,392.00
2024-03-10T02:20:06.330Z,392.00
2024-03-10T02:21:06.465Z,392.00
2024-03-10T02:22:06.564Z,393.00
2024-03-10T02:23:06.684Z,391.00
2024-03-10T02:24:06.746Z,390.00
2024-03-10T02:25:06.889Z,392.00
2024-03-10T02:26:07.017Z,392.00
2024-03-10T02:27:07.070Z,393.00
2024-03-10T02:28:07.182Z,392.00
2024-03-10T02:29:07.304Z,393.00
2024-03-10T02:30:07.395Z,393.00
2024-03-10T02:31:07.498Z,397.00
2024-03-10T02:32:07.615Z,396.00
2024-03-10T02:33:07.737Z,394.00
2024-03-10T02:34:07.786Z,395.00
2024-03-10T02:35:07.887Z,396.00
2024-03-10T02:36:07.984Z,394.00
2024-03-10T02:37:08.061Z,395.00
2024-03-10T02:38:08.190Z,394.00
2024-03-10T02:39:08.306Z,393.00
2024-03-10T02:40:08.446Z,393.00
2024-03-10T02:41:08.542Z,393.00
2024-03-10T02:42:08.591Z,394.00
2024-03-10T02:43:08.703Z,391.00
2024-03-10T02:44:08.869Z,391.00
2024-03-10T02:45:08.916Z,391.00
2024-03-10T02:46:08.992Z,390.00
2024-03-10T02:47:09.176Z,390.00
2024-03-10T02:48:09.260Z,391.00
2024-03-10T02:49:09.304Z,391.00
2024-03-10T02:50:09.449Z,391.00
2024-03-10T02:51:09.591Z,392.00
2024-03-10T02:52:09.599Z,391.00
2024-03-10T02:53:09.860Z,390.00
2024-03-10T02:54:09.839Z,391.00
2024-03-10T02:55:09.948Z,392.00
2024-03-10T02:56:10.107Z,390.00
2024-03-10T02:57:10.181Z,391.00
2024-03-10T02:58:10.275Z,393.00
2024-03-10T02:59:10.401Z,393.00
2024-03-10T03:00:10.529Z,393.00
2024-03-10T03:01:10.663Z,390.00
2024-03-10T03:02:10.709Z,391.00
2024-03-10T03:03:10.843Z,390.00
2024-03-10T03:04:10.893Z,391.00
2024-03-10T03:05:11.020Z,391.00
2024-03-10T03:06:11.133Z,391.00
2024-03-10T03:07:11.221Z,393.00
2024-03-10T03:08:11.346Z,391.00
2024-03-10T03:09:11.438Z,391.00
2024-03-10T03:10:11.537Z,391.00
2024-03-10T03:11:11.721Z,393.00
2024-03-10T03:12:13.858Z,393.00
2024-03-10T03:13:11.805Z,393.00
2024-03-10T03:14:11.860Z,395.00
2024-03-10T03:15:11.890Z,395.00
2024-03-10T03:16:11.921Z,395.00
2024-03-10T03:17:12.001Z,394.00
2024-03-10T03:18:12.146Z,395.00
2024-03-10T03:19:12.169Z,395.00
2024-03-10T03:20:12.315Z,395.00
2024-03-10T03:21:12.387Z,395.00
2024-03-10T03:22:12.509Z,392.00
2024-03-10T03:23:12.682Z,391.00
2024-03-10T03:24:12.782Z,392.00
2024-03-10T03:25:12.888Z,392.00
2024-03-10T03:26:12.987Z,390.00
2024-03-10T03:27:13.100Z,391.00
2024-03-10T03:28:13.206Z,392.00
2024-03-10T03:29:13.455Z,391.00
2024-03-10T03:30:13.434Z,392.00
2024-03-10T03:31:13.527Z,390.00
2024-03-10T03:32:13.714Z,390.00
2024-03-10T03:33:13.865Z,390.00
2024-03-10T03:34:13.873Z,388.00
2024-03-10T03:35:14.071Z,386.00
2024-03-10T03:36:14.062Z,387.00
2024-03-10T03:37:14.216Z,389.00
2024-03-10T03:38:14.331Z,390.00
2024-03-10T03:39:14.421Z,388.00
2024-03-10T03:40:14.521Z,389.00
2024-03-10T03:41:14.666Z,387.00
2024-03-10T03:42:14.729Z,385.00
2024-03-10T03:43:14.899Z,385.00
2024-03-10T03:44:15.006Z,385.00
2024-03-10T03:45:15.073Z,387.00
2024-03-10T03:46:15.785Z,389.00
2024-03-10T03:47:15.270Z,389.00
2024-03-10T03:48:17.558Z,388.00
2024-03-10T03:49:15.228Z,389.00
2024-03-10T03:50:15.245Z,388.00
2024-03-10T03:51:15.231Z,386.00
2024-03-10T03:52:15.275Z,384.00
2024-03-10T03:53:15.297Z,384.00
2024-03-10T03:54:15.250Z,383.00
2024-03-10T03:55:15.285Z,384.00
2024-03-10T03:56:15.345Z,384.00
2024-03-10T03:57:15.761Z,386.00
2024-03-10T03:58:15.260Z,386.00
2024-03-10T03:59:15.278Z,386.00
2024-03-10T04:00:15.271Z,386.00
2024-03-10T04:01:15.319Z,386.00
2024-03-10T04:02:15.432Z,385.00
2024-03-10T04:03:15.300Z,387.00
2024-03-10T04:04:15.241Z,386.00
2024-03-10T04:05:15.275Z,385.00
2024-03-10T04:06:15.259Z,387.00
2024-03-10T04:07:15.262Z,389.00
2024-03-10T04:08:15.307Z,386.00
2024-03-10T04:09:15.275Z,388.00
2024-03-10T04:10:15.281Z,389.00
2024-03-10T04:11:15.356Z,390.00
2024-03-10T04:12:15.469Z,390.00
2024-03-10T04:13:15.276Z,391.00
2024-03-10T04:14:15.363Z,391.00
2024-03-10T04:15:15.482Z,391.00
2024-03-10T04:16:15.582Z,392.00
2024-03-10T04:17:15.768Z,392.00
2024-03-10T04:18:15.840Z,392.00
2024-03-10T04:19:15.910Z,393.00
2024-03-10T04:20:16.074Z,391.00
2024-03-10T04:21:16.133Z,391.00
2024-03-10T04:22:16.268Z,393.00
2024-03-10T04:23:16.426Z,395.00
2024-03-10T04:24:16.433Z,395.00
2024-03-10T04:25:16.582Z,394.00
2024-03-10T04:26:16.727Z,396.00
2024-03-10T04:27:16.823Z,394.00
2024-03-10T04:28:16.874Z,393.00
2024-03-10T04:29:24.175Z,398.00
2024-03-10T04:30:24.138Z,395.00
2024-03-10T04:31:31.321Z,398.00
2024-03-10T04:32:31.473Z,395.00
2024-03-10T04:33:31.333Z,396.00
2024-03-10T04:34:31.365Z,398.00
2024-03-10T04:35:31.361Z,397.00
2024-03-10T04:36:31.360Z,396.00
2024-03-10T04:37:31.362Z,395.00
2024-03-10T04:38:31.453Z,396.00
2024-03-10T04:39:31.379Z,394.00
2024-03-10T04:40:31.324Z,394.00
2024-03-10T04:41:31.376Z,392.00
2024-03-10T04:42:31.324Z,390.00
2024-03-10T04:43:31.344Z,391.00
2024-03-10T04:44:31.421Z,391.00
2024-03-10T04:45:31.335Z,391.00
2024-03-10T04:46:31.386Z,389.00
2024-03-10T04:47:31.512Z,389.00
2024-03-10T04:48:31.341Z,389.00
2024-03-10T04:49:31.327Z,387.00
2024-03-10T04:50:31.444Z,389.00
2024-03-10T04:51:31.345Z,388.00
2024-03-10T04:52:31.359Z,387.00
2024-03-10T04:53:31.422Z,386.00
2024-03-10T04:54:31.377Z,387.00
2024-03-10T04:55:31.349Z,386.00
2024-03-10T04:56:31.425Z,385.00
2024-03-10T04:57:31.412Z,385.00
2024-03-10T04:58:31.608Z,386.00
2024-03-10T04:59:31.780Z,388.00
2024-03-10T05:00:31.795Z,389.00
2024-03-10T05:01:31.873Z,390.00
2024-03-10T05:02:32.062Z,389.00
2024-03-10T05:03:32.131Z,389.00
2024-03-10T05:04:32.237Z,386.00
2024-03-10T05:05:32.354Z,386.00
2024-03-10T05:06:32.416Z,386.00
2024-03-10T05:07:32.523Z,386.00
2024-03-10T05:08:32.692Z,385.00
2024-03-10T05:09:32.820Z,387.00
2024-03-10T05:10:32.882Z,388.00
2024-03-10T05:11:33.278Z,386.00
2024-03-10T05:12:33.099Z,385.00
2024-03-10T05:13:33.214Z,384.00
2024-03-10T05:14:33.365Z,386.00
2024-03-10T05:15:33.459Z,387.00
2024-03-10T05:16:33.583Z,386.00
2024-03-10T05:17:33.831Z,385.00
2024-03-10T05:18:33.781Z,386.00
2024-03-10T05:19:33.891Z,388.00
2024-03-10T05:20:34.116Z,386.00
2024-03-10T05:21:34.118Z,383.00
2024-03-10T05:22:34.241Z,382.00
2024-03-10T05:23:34.358Z,384.00
2024-03-10T05:24:34.455Z,384.00
2024-03-10T05:25:34.563Z,387.00
2024-03-10T05:26:34.676Z,387.00
2024-03-10T05:27:34.794Z,387.00
2024-03-10T05:28:34.882Z,389.00
2024-03-10T05:29:35.015Z,389.00
2024-03-10T05:30:35.104Z,390.00
2024-03-10T05:31:35.223Z,391.00
2024-03-10T05:32:35.402Z,390.00
2024-03-10T05:33:35.450Z,389.00
2024-03-10T05:34:35.553Z,388.00
2024-03-10T05:35:35.701Z,388.00
2024-03-10T05:36:35.795Z,387.00
2024-03-10T05:37:35.911Z,386.00
2024-03-10T05:38:36.033Z,387.00
2024-03-10T05:39:36.142Z,386.00
2024-03-10T05:40:36.241Z,383.00
2024-03-10T05:41:36.448Z,385.00
2024-03-10T05:42:36.460Z,386.00
2024-03-10T05:43:36.597Z,387.00
2024-03-10T05:44:36.729Z,392.00
2024-03-10T05:45:36.797Z,393.00
2024-03-10T05:46:36.894Z,394.00
2024-03-10T05:47:37.019Z,393.00
2024-03-10T05:48:37.100Z,390.00
2024-03-10T05:49:37.195Z,390.00
2024-03-10T05:50:37.354Z,391.00
2024-03-10T05:51:37.462Z,391.00
2024-03-10T05:52:37.553Z,389.00
2024-03-10T05:53:37.671Z,388.00
2024-03-10T05:54:37.787Z,387.00
2024-03-10T05:55:37.881Z,388.00
2024-03-10T05:56:38.050Z,386.00
2024-03-10T05:57:38.100Z,384.00
2024-03-10T05:58:38.220Z,380.00
2024-03-10T05:59:38.342Z,380.00
2024-03-10T06:00:38.494Z,378.00
2024-03-10T06:01:38.553Z,379.00
2024-03-10T06:02:38.691Z,380.00
2024-03-10T06:03:38.770Z,382.00
2024-03-10T06:04:38.899Z,383.00
2024-03-10T06:05:39.061Z,383.00
2024-03-10T06:06:39.113Z,383.00
2024-03-10T06:07:39.232Z,382.00
2024-03-10T06:08:39.399Z,383.00
2024-03-10T06:09:39.448Z,385.00
2024-03-10T06:10:39.553Z,386.00
2024-03-10T06:11:39.806Z,386.00
2024-03-10T06:12:39.795Z,388.00
2024-03-10T06:13:39.896Z,390.00
2024-03-10T06:14:40.084Z,389.00
2024-03-10T06:15:40.129Z,391.00
2024-03-10T06:16:40.219Z,388.00
2024-03-10T06:17:40.366Z,391.00
2024-03-10T06:18:40.450Z,390.00
2024-03-10T06:19:40.556Z,391.00
2024-03-10T06:20:40.665Z,393.00
2024-03-10T06:21:40.780Z,394.00
2024-03-10T06:22:40.872Z,393.00
2024-03-10T06:23:41.008Z,393.00
2024-03-10T06:24:41.103Z,393.00
2024-03-10T06:25:41.237Z,392.00
2024-03-10T06:26:42.555Z,391.00
2024-03-10T06:27:41.515Z,389.00
2024-03-10T06:28:41.550Z,388.00
2024-03-10T06:29:41.534Z,387.00
2024-03-10T06:30:41.578Z,385.00
2024-03-10T06:31:41.572Z,386.00
2024-03-10T06:32:41.703Z,386.00
2024-03-10T06:33:41.674Z,387.00
2024-03-10T06:34:41.699Z,388.00
2024-03-10T06:35:41.822Z,388.00
2024-03-10T06:36:41.883Z,388.00
2024-03-10T06:37:42.020Z,388.00
2024-03-10T06:38:42.129Z,389.00
2024-03-10T06:39:42.771Z,391.00
2024-03-10T06:40:42.317Z,393.00
2024-03-10T06:41:42.433Z,394.00
2024-03-10T06:42:45.649Z,393.00
2024-03-10T06:43:42.589Z,391.00
2024-03-10T06:44:42.639Z,390.00
2024-03-10T06:45:42.849Z,391.00
2024-03-10T06:46:42.552Z,392.00
2024-03-10T06:47:42.856Z,392.00
2024-03-10T06:48:42.538Z,390.00
2024-03-10T06:49:42.559Z,391.00
2024-03-10T06:50:45.015Z,390.00
2024-03-10T06:51:43.680Z,391.00
2024-03-10T06:52:42.581Z,393.00
2024-03-10T06:53:42.580Z,392.00
2024-03-10T06:54:42.595Z,392.00
2024-03-10T06:55:42.597Z,390.00
2024-03-10T06:56:42.596Z,390.00
2024-03-10T06:57:42.637Z,391.00
2024-03-10T06:58:42.567Z,392.00
2024-03-10T06:59:42.691Z,390.00
2024-03-10T07:00:42.795Z,388.00
2024-03-10T07:01:42.876Z,392.00
2024-03-10T07:02:44.379Z,392.00
2024-03-10T07:03:43.062Z,390.00
2024-03-10T07:04:43.069Z,390.00
2024-03-10T07:05:43.101Z,388.00
2024-03-10T07:06:43.130Z,390.00
2024-03-10T07:07:43.142Z,390.00
2024-03-10T07:08:43.261Z,392.00
2024-03-10T07:09:43.415Z,393.00
2024-03-10T07:10:43.566Z,394.00
2024-03-10T07:11:43.813Z,398.00
2024-03-10T07:12:43.695Z,398.00
2024-03-10T07:13:43.798Z,399.00
2024-03-10T07:14:47.103Z,398.00
2024-03-10T07:15:43.919Z,398.00
2024-03-10T07:16:43.943Z,398.00
2024-03-10T07:17:44.095Z,398.00
2024-03-10T07:18:43.913Z,398.00
2024-03-10T07:19:44.024Z,401.00
2024-03-10T07:20:46.321Z,401.00
2024-03-10T07:21:43.921Z,402.00
2024-03-10T07:22:43.935Z,401.00
2024-03-10T07:23:43.953Z,399.00
2024-03-10T07:24:43.945Z,398.00
2024-03-10T07:25:43.954Z,400.00
2024-03-10T07:26:43.958Z,400.00
2024-03-10T07:27:43.993Z,400.00
2024-03-10T07:28:43.954Z,400.00
2024-03-10T07:29:43.943Z,399.00
2024-03-10T07:30:43.975Z,399.00
2024-03-10T07:31:43.966Z,398.00
2024-03-10T07:32:44.073Z,398.00
2024-03-10T07:33:43.964Z,396.00
2024-03-10T07:34:47.227Z,397.00
2024-03-10T07:35:43.947Z,399.00
2024-03-10T07:36:43.974Z,399.00
2024-03-10T07:37:43.951Z,399.00
2024-03-10T07:38:43.976Z,398.00
2024-03-10T07:39:43.959Z,397.00
2024-03-10T07:40:43.994Z,396.00
2024-03-10T07:41:44.070Z,398.00
2024-03-10T07:42:44.010Z,397.00
2024-03-10T07:43:43.991Z,399.00
2024-03-10T07:44:43.993Z,398.00
2024-03-10T07:45:44.018Z,398.00
2024-03-10T07:46:44.004Z,398.00
2024-03-10T07:47:44.168Z,397.00
2024-03-10T07:48:46.403Z,395.00
2024-03-10T07:49:43.998Z,395.00
2024-03-10T07:50:44.055Z,397.00
2024-03-10T07:51:44.021Z,398.00
2024-03-10T07:52:44.043Z,398.00
2024-03-10T07:53:43.996Z,399.00
2024-03-10T07:54:44.057Z,401.00
2024-03-10T07:55:44.008Z,401.00
2024-03-10T07:56:44.080Z,401.00
2024-03-10T07:57:44.045Z,400.00
2024-03-10T07:58:44.034Z,397.00
2024-03-10T07:59:44.032Z,402.00
2024-03-10T08:00:44.039Z,403.00
2024-03-10T08:01:44.037Z,405.00
2024-03-10T08:02:44.066Z,403.00
2024-03-10T08:03:44.033Z,404.00
2024-03-10T08:04:44.061Z,404.00
2024-03-10T08:05:44.058Z,404.00
2024-03-10T08:06:44.027Z,404.00
2024-03-10T08:07:46.079Z,403.00
2024-03-10T08:08:44.037Z,403.00
2024-03-10T08:09:44.055Z,404.00
2024-03-10T08:10:44.095Z,405.00
2024-03-10T08:11:44.138Z,404.00
2024-03-10T08:12:44.056Z,404.00
2024-03-10T08:13:44.068Z,405.00
2024-03-10T08:14:44.062Z,404.00
2024-03-10T08:15:44.048Z,403.00
2024-03-10T08:16:44.038Z,403.00
2024-03-10T08:17:44.101Z,400.00
2024-03-10T08:18:45.076Z,399.00
2024-03-10T08:19:44.085Z,398.00
2024-03-10T08:20:44.088Z,396.00
2024-03-10T08:21:44.048Z,397.00
2024-03-10T08:22:44.133Z,397.00
2024-03-10T08:23:44.102Z,399.00
2024-03-10T08:24:44.068Z,398.00
2024-03-10T08:25:44.108Z,399.00
2024-03-10T08:26:44.069Z,397.00
2024-03-10T08:27:44.067Z,398.00
2024-03-10T08:28:44.056Z,398.00
2024-03-10T08:29:44.091Z,398.00
2024-03-10T08:30:44.076Z,395.00
2024-03-10T08:31:44.126Z,394.00
2024-03-10T08:32:44.124Z,393.00
2024-03-10T08:33:44.110Z,394.00
2024-03-10T08:34:44.211Z,394.00
2024-03-10T08:35:44.353Z,393.00
2024-03-10T08:36:44.382Z,392.00
2024-03-10T08:37:44.536Z,392.00
2024-03-10T08:38:44.613Z,391.00
2024-03-10T08:39:44.695Z,391.00
2024-03-10T08:40:44.785Z,388.00
2024-03-10T08:41:44.881Z,386.00
2024-03-10T08:42:45.053Z,386.00
2024-03-10T08:43:45.061Z,385.00
2024-03-10T08:44:45.186Z,386.00
2024-03-10T08:45:45.285Z,387.00
2024-03-10T08:46:45.332Z,386.00
2024-03-10T08:47:45.595Z,387.00
2024-03-10T08:48:45.537Z,386.00
2024-03-10T08:49:45.609Z,388.00
2024-03-10T08:50:45.753Z,388.00
2024-03-10T08:51:45.805Z,389.00
2024-03-10T08:52:45.894Z,388.00
2024-03-10T08:53:46.014Z,387.00
2024-03-10T08:54:46.101Z,388.00
2024-03-10T08:55:46.236Z,389.00
2024-03-10T08:56:46.262Z,390.00
2024-03-10T08:57:46.377Z,392.00
2024-03-10T08:58:46.449Z,391.00
2024-03-10T08:59:46.573Z,391.00
2024-03-10T09:00:46.639Z,389.00
2024-03-10T09:01:46.728Z,388.00
2024-03-10T09:02:46.837Z,385.00
2024-03-10T09:03:46.922Z,385.00
2024-03-10T09:04:47.003Z,383.00
2024-03-10T09:05:47.116Z,385.00
2024-03-10T09:06:47.165Z,386.00
2024-03-10T09:07:47.261Z,385.00
2024-03-10T09:08:47.372Z,386.00
2024-03-10T09:09:47.505Z,388.00
2024-03-10T09:10:53.491Z,389.00
2024-03-10T09:11:48.641Z,390.00
2024-03-10T09:12:47.590Z,390.00
2024-03-10T09:13:47.545Z,394.00
2024-03-10T09:14:50.874Z,395.00
2024-03-10T09:15:47.568Z,393.00
2024-03-10T09:16:47.531Z,392.00
2024-03-10T09:17:47.836Z,391.00
2024-03-10T09:18:47.553Z,392.00
2024-03-10T09:19:47.687Z,393.00
2024-03-10T09:20:47.610Z,394.00
2024-03-10T09:21:47.553Z,394.00
2024-03-10T09:22:47.568Z,394.00
2024-03-10T09:23:47.573Z,395.00
2024-03-10T09:24:47.575Z,395.00
2024-03-10T09:25:47.584Z,393.00
2024-03-10T09:26:47.584Z,393.00
2024-03-10T09:27:47.601Z,390.00
2024-03-10T09:28:47.565Z,391.00
2024-03-10T09:29:47.563Z,389.00
2024-03-10T09:30:47.568Z,389.00
2024-03-10T09:31:47.562Z,390.00
2024-03-10T09:32:47.587Z,391.00
2024-03-10T09:33:47.637Z,391.00
2024-03-10T09:34:47.592Z,391.00
2024-03-10T09:35:47.596Z,390.00
2024-03-10T09:36:47.575Z,389.00
2024-03-10T09:37:47.570Z,389.00
2024-03-10T09:38:47.560Z,390.00
2024-03-10T09:39:47.568Z,389.00
2024-03-10T09:40:47.587Z,389.00
2024-03-10T09:41:47.587Z,389.00
2024-03-10T09:42:47.588Z,389.00
2024-03-10T09:43:47.575Z,388.00
2024-03-10T09:44:47.616Z,388.00
2024-03-10T09:45:47.667Z,388.00
2024-03-10T09:46:47.586Z,388.00
2024-03-10T09:47:47.608Z,388.00
2024-03-10T09:48:47.584Z,389.00
2024-03-10T09:49:47.609Z,391.00
2024-03-10T09:50:49.170Z,391.00
2024-03-10T09:51:47.705Z,392.00
2024-03-10T09:52:47.749Z,392.00
2024-03-10T09:53:47.789Z,392.00
2024-03-10T09:54:47.805Z,391.00
2024-03-10T09:55:47.847Z,390.00
2024-03-10T09:56:47.927Z,390.00
2024-03-10T09:57:47.861Z,388.00
2024-03-10T09:58:47.901Z,390.00
2024-03-10T09:59:48.043Z,390.00
2024-03-10T10:00:48.083Z,388.00
2024-03-10T10:01:48.085Z,389.00
2024-03-10T10:02:48.188Z,389.00
2024-03-10T10:03:48.250Z,388.00
2024-03-10T10:04:48.358Z,388.00
2024-03-10T10:05:48.411Z,388.00
2024-03-10T10:06:48.526Z,388.00
2024-03-10T10:07:48.817Z,388.00
2024-03-10T10:08:48.654Z,388.00
2024-03-10T10:09:48.741Z,389.00
2024-03-10T10:10:48.949Z,388.00
2024-03-10T10:11:49.022Z,389.00
2024-03-10T10:12:49.909Z,390.00
2024-03-10T10:13:48.986Z,391.00
2024-03-10T10:14:49.020Z,388.00
2024-03-10T10:15:49.088Z,388.00
2024-03-10T10:16:50.541Z,388.00
2024-03-10T10:17:49.220Z,388.00
2024-03-10T10:18:54.716Z,389.00
2024-03-10T10:19:50.268Z,390.00
2024-03-10T10:20:49.245Z,390.00
2024-03-10T10:21:49.322Z,386.00
2024-03-10T10:22:49.234Z,388.00
2024-03-10T10:23:49.267Z,391.00
2024-03-10T10:24:49.239Z,390.00
2024-03-10T10:25:49.282Z,391.00
2024-03-10T10:26:49.212Z,391.00
2024-03-10T10:27:49.285Z,390.00
2024-03-10T10:28:49.303Z,391.00
2024-03-10T10:29:49.323Z,391.00
2024-03-10T10:30:49.304Z,390.00
2024-03-10T10:31:49.336Z,391.00
2024-03-10T10:32:49.374Z,393.00
2024-03-10T10:33:49.323Z,391.00
2024-03-10T10:34:49.430Z,389.00
2024-03-10T10:35:49.534Z,389.00
2024-03-10T10:36:49.506Z,388.00
2024-03-10T10:37:49.580Z,390.00
2024-03-10T10:38:49.611Z,391.00
2024-03-10T10:39:49.664Z,391.00
2024-03-10T10:41:49.800Z,392.00
2024-03-10T10:42:57.072Z,396.00
2024-03-10T10:43:50.887Z,396.00
2024-03-10T10:44:49.924Z,395.00
2024-03-10T10:45:50.194Z,395.00
2024-03-10T10:46:49.922Z,393.00
2024-03-10T10:47:49.979Z,394.00
2024-03-10T10:48:49.883Z,393.00
2024-03-10T10:49:49.949Z,392.00
2024-03-10T10:50:50.100Z,390.00
2024-03-10T10:51:49.927Z,390.00
2024-03-10T10:52:50.066Z,388.00
2024-03-10T10:54:15.333Z,398.00
2024-03-10T10:55:15.296Z,396.00
2024-03-10T10:56:15.316Z,393.00
2024-03-10T10:57:15.294Z,391.00
2024-03-10T10:58:15.304Z,390.00
2024-03-10T10:59:15.337Z,389.00
2024-03-10T11:00:15.379Z,389.00
2024-03-10T11:01:15.436Z,387.00
2024-03-10T11:02:15.346Z,386.00
2024-03-10T11:03:15.316Z,387.00
2024-03-10T11:04:15.327Z,389.00
2024-03-10T11:05:15.433Z,390.00
2024-03-10T11:06:15.327Z,386.00
2024-03-10T11:07:15.333Z,385.00
2024-03-10T11:08:15.318Z,387.00
2024-03-10T11:09:15.847Z,387.00
2024-03-10T11:10:15.314Z,385.00
2024-03-10T11:11:15.392Z,383.00
2024-03-10T11:12:15.419Z,384.00
2024-03-10T11:13:15.322Z,384.00
2024-03-10T11:14:15.489Z,384.00
2024-03-10T11:15:15.366Z,385.00
2024-03-10T11:16:15.357Z,384.00
2024-03-10T11:17:15.400Z,386.00
2024-03-10T11:18:15.353Z,387.00
2024-03-10T11:19:15.473Z,389.00
2024-03-10T11:20:15.459Z,390.00
2024-03-10T11:21:15.365Z,389.00
2024-03-10T11:22:15.312Z,387.00
2024-03-10T11:23:15.386Z,386.00
2024-03-10T11:24:15.337Z,387.00
2024-03-10T11:25:15.339Z,388.00
2024-03-10T11:26:15.363Z,388.00
2024-03-10T11:27:15.356Z,388.00
2024-03-10T11:28:15.330Z,387.00
2024-03-10T11:29:15.352Z,386.00
2024-03-10T11:30:15.362Z,387.00
2024-03-10T11:31:15.359Z,389.00
2024-03-10T11:32:15.414Z,389.00
2024-03-10T11:33:15.336Z,389.00
2024-03-10T11:34:15.420Z,389.00
2024-03-10T11:35:15.554Z,388.00
2024-03-10T11:36:15.607Z,388.00
2024-03-10T11:37:15.674Z,388.00
2024-03-10T11:38:15.788Z,388.00
2024-03-10T11:39:15.856Z,386.00
2024-03-10T11:40:15.964Z,388.00
2024-03-10T11:41:16.049Z,389.00
2024-03-10T11:42:16.146Z,388.00
2024-03-10T11:43:16.203Z,388.00
2024-03-10T11:44:16.355Z,387.00
2024-03-10T11:45:16.450Z,389.00
2024-03-10T11:46:16.497Z,389.00
2024-03-10T11:47:16.638Z,387.00
2024-03-10T11:48:16.713Z,388.00
2024-03-10T11:49:16.754Z,387.00
2024-03-10T11:50:16.910Z,386.00
2024-03-10T11:51:16.958Z,386.00
2024-03-10T11:52:17.046Z,385.00
2024-03-10T11:53:17.143Z,387.00
2024-03-10T11:54:17.177Z,387.00
2024-03-10T11:55:17.280Z,387.00
2024-03-10T11:56:17.348Z,388.00
2024-03-10T11:57:17.472Z,387.00
2024-03-10T11:58:17.527Z,386.00
2024-03-10T11:59:17.657Z,387.00
2024-03-10T12:00:17.797Z,386.00
2024-03-10T12:01:17.886Z,387.00
2024-03-10T12:02:17.932Z,388.00
2024-03-10T12:03:17.978Z,389.00
2024-03-10T12:04:18.075Z,391.00
2024-03-10T12:05:18.197Z,391.00
2024-03-10T12:06:18.313Z,393.00
2024-03-10T12:07:18.337Z,392.00
2024-03-10T12:08:18.632Z,392.00
2024-03-10T12:09:18.510Z,393.00
2024-03-10T12:10:18.572Z,396.00
2024-03-10T12:11:18.835Z,396.00
2024-03-10T12:12:18.800Z,397.00
2024-03-10T12:13:18.844Z,395.00
2024-03-10T12:14:18.942Z,393.00
2024-03-10T12:15:19.187Z,394.00
2024-03-10T12:16:19.125Z,396.00
2024-03-10T12:17:19.233Z,395.00
2024-03-10T12:18:19.402Z,397.00
2024-03-10T12:19:19.398Z,399.00
2024-03-10T12:20:19.503Z,399.00
2024-03-10T12:21:19.573Z,398.00
2024-03-10T12:22:19.612Z,396.00
2024-03-10T12:23:19.692Z,396.00
2024-03-10T12:24:19.796Z,392.00
2024-03-10T12:25:20.310Z,392.00
2024-03-10T12:26:19.959Z,393.00
2024-03-10T12:27:20.030Z,394.00
2024-03-10T12:28:20.132Z,396.00
2024-03-10T12:29:20.211Z,398.00
2024-03-10T12:30:20.287Z,398.00
2024-03-10T12:31:20.346Z,397.00